createdAt,value
2017-04-30T00:00:34.419Z,0
2017-04-30T00:01:15.302Z,0
2017-04-30T00:01:56.187Z,0
2017-04-30T00:02:37.070Z,0
2017-04-30T00:03:17.955Z,0
2017-04-30T00:03:58.830Z,0
2017-04-30T00:04:39.701Z,0
2017-04-30T00:05:20.579Z,0
2017-04-30T00:06:01.462Z,0
2017-04-30T00:06:42.368Z,0
2017-04-30T00:07:23.275Z,0
2017-04-30T00:08:04.163Z,0
2017-04-30T00:08:45.038Z,0
2017-04-30T00:09:25.930Z,0
2017-04-30T00:10:06.823Z,0
2017-04-30T00:10:47.703Z,0
2017-04-30T00:11:28.585Z,0
2017-04-30T00:12:09.466Z,0
2017-04-30T00:12:50.342Z,0
2017-04-30T00:13:31.198Z,0
2017-04-30T00:14:12.085Z,0
2017-04-30T00:14:52.978Z,0
2017-04-30T00:15:33.843Z,0
2017-04-30T00:16:14.726Z,0
2017-04-30T00:16:55.609Z,0
2017-04-30T00:17:36.503Z,0
2017-04-30T00:18:17.376Z,0
2017-04-30T00:18:58.252Z,0
2017-04-30T00:19:39.139Z,0
2017-04-30T00:20:20.061Z,0
2017-04-30T00:21:00.923Z,0
2017-04-30T00:21:41.803Z,0
2017-04-30T00:22:22.689Z,0
2017-04-30T00:23:03.564Z,0
2017-04-30T00:23:44.440Z,0
2017-04-30T00:24:25.320Z,0
2017-04-30T00:25:06.205Z,0
2017-04-30T00:25:47.081Z,0
2017-04-30T00:26:27.946Z,0
2017-04-30T00:27:08.824Z,0
2017-04-30T00:27:49.692Z,0
2017-04-30T00:28:30.587Z,0
2017-04-30T00:29:11.473Z,0
2017-04-30T00:29:52.347Z,0
2017-04-30T00:30:33.248Z,0
2017-04-30T00:31:14.077Z,0
2017-04-30T00:31:54.964Z,0
2017-04-30T00:32:35.844Z,0
2017-04-30T00:33:16.750Z,0
2017-04-30T00:33:57.615Z,0
2017-04-30T00:34:38.490Z,0
2017-04-30T00:35:19.370Z,0
2017-04-30T00:36:00.246Z,0
2017-04-30T00:36:41.134Z,0
2017-04-30T00:37:22.019Z,0
2017-04-30T00:38:02.884Z,0
2017-04-30T00:38:43.764Z,0
2017-04-30T00:39:24.668Z,0
2017-04-30T00:40:05.527Z,0
2017-04-30T00:40:46.395Z,0
2017-04-30T00:41:27.268Z,0
2017-04-30T00:42:08.156Z,0
2017-04-30T00:42:49.048Z,0
2017-04-30T00:43:29.923Z,0
2017-04-30T00:44:10.801Z,0
2017-04-30T00:44:51.670Z,0
2017-04-30T00:45:32.581Z,0
2017-04-30T00:46:13.448Z,0
2017-04-30T00:46:54.311Z,0
2017-04-30T00:47:35.185Z,0
2017-04-30T00:48:16.104Z,0
2017-04-30T00:48:56.976Z,0
2017-04-30T00:49:37.849Z,0
2017-04-30T00:50:18.705Z,0
2017-04-30T00:50:59.575Z,0
2017-04-30T00:51:40.437Z,0
2017-04-30T00:52:21.325Z,0
2017-04-30T00:53:02.215Z,0
2017-04-30T00:53:43.091Z,0
2017-04-30T00:54:23.964Z,0
2017-04-30T00:55:04.827Z,0
2017-04-30T00:55:45.697Z,0
2017-04-30T00:56:26.559Z,0
2017-04-30T00:57:07.438Z,0
2017-04-30T00:57:48.344Z,0
2017-04-30T00:58:29.207Z,0
2017-04-30T00:59:10.058Z,0
2017-04-30T00:59:50.922Z,0
2017-04-30T01:00:31.779Z,0
2017-04-30T01:01:12.638Z,0
2017-04-30T01:01:53.513Z,0
2017-04-30T01:02:34.376Z,0
2017-04-30T01:03:15.305Z,0
2017-04-30T01:03:56.178Z,0
2017-04-30T01:04:37.050Z,0
2017-04-30T01:05:17.929Z,0
2017-04-30T01:05:58.862Z,0
2017-04-30T01:06:39.743Z,0
2017-04-30T01:07:20.633Z,0
2017-04-30T01:08:01.509Z,0
2017-04-30T01:08:42.378Z,0
2017-04-30T01:09:23.247Z,0
2017-04-30T01:10:04.125Z,0
2017-04-30T01:10:45.002Z,0
2017-04-30T01:11:26.510Z,0
2017-04-30T01:12:07.393Z,0
2017-04-30T01:12:48.244Z,0
2017-04-30T01:13:29.118Z,0
2017-04-30T01:14:10.001Z,0
2017-04-30T01:14:50.880Z,0
2017-04-30T01:15:31.765Z,0
2017-04-30T01:16:12.632Z,0
2017-04-30T01:16:53.514Z,0
2017-04-30T01:17:34.390Z,0
2017-04-30T01:18:15.273Z,0
2017-04-30T01:18:56.159Z,0
2017-04-30T01:19:37.029Z,0
2017-04-30T01:20:17.893Z,0
2017-04-30T01:20:58.761Z,0
2017-04-30T01:21:39.640Z,0
2017-04-30T01:22:20.527Z,0
2017-04-30T01:23:01.415Z,0
2017-04-30T01:23:42.286Z,0
2017-04-30T01:24:23.168Z,0
2017-04-30T01:25:04.043Z,0
2017-04-30T01:25:44.940Z,0
2017-04-30T01:26:25.803Z,0
2017-04-30T01:27:06.676Z,0
2017-04-30T01:27:47.534Z,0
2017-04-30T01:28:28.450Z,0
2017-04-30T01:29:09.314Z,0
2017-04-30T01:29:50.193Z,0
2017-04-30T01:30:31.066Z,0
2017-04-30T01:31:11.937Z,0
2017-04-30T01:31:52.809Z,0
2017-04-30T01:32:33.699Z,0
2017-04-30T01:33:14.582Z,0
2017-04-30T01:33:55.474Z,0
2017-04-30T01:34:36.346Z,0
2017-04-30T01:35:17.234Z,0
2017-04-30T01:35:58.111Z,0
2017-04-30T01:36:38.979Z,0
2017-04-30T01:37:19.856Z,0
2017-04-30T01:38:00.728Z,0
2017-04-30T01:38:41.612Z,0
2017-04-30T01:39:22.511Z,0
2017-04-30T01:40:03.372Z,0
2017-04-30T01:40:44.255Z,0
2017-04-30T01:41:25.114Z,0
2017-04-30T01:42:06.001Z,0
2017-04-30T01:42:46.879Z,0
2017-04-30T01:43:27.755Z,0
2017-04-30T01:44:08.639Z,0
2017-04-30T01:44:49.500Z,0
2017-04-30T01:45:30.381Z,0
2017-04-30T01:46:11.270Z,0
2017-04-30T01:46:52.153Z,0
2017-04-30T01:47:33.023Z,0
2017-04-30T01:48:13.903Z,0
2017-04-30T01:48:54.788Z,0
2017-04-30T01:49:35.675Z,0
2017-04-30T01:50:16.542Z,0
2017-04-30T01:50:57.412Z,0
2017-04-30T01:51:38.276Z,0
2017-04-30T01:52:19.160Z,0
2017-04-30T01:53:00.029Z,0
2017-04-30T01:53:40.925Z,0
2017-04-30T01:54:21.801Z,0
2017-04-30T01:55:02.679Z,0
2017-04-30T01:55:43.543Z,0
2017-04-30T01:56:24.415Z,0
2017-04-30T01:57:05.307Z,0
2017-04-30T01:57:46.174Z,0
2017-04-30T01:58:27.049Z,0
2017-04-30T01:59:07.973Z,0
2017-04-30T01:59:48.850Z,0
2017-04-30T02:00:29.717Z,0
2017-04-30T02:01:10.595Z,0
2017-04-30T02:01:51.474Z,0
2017-04-30T02:02:32.355Z,0
2017-04-30T02:03:13.240Z,0
2017-04-30T02:03:54.117Z,0
2017-04-30T02:04:34.989Z,0
2017-04-30T02:05:15.868Z,0
2017-04-30T02:05:56.752Z,0
2017-04-30T02:06:37.614Z,0
2017-04-30T02:07:18.490Z,0
2017-04-30T02:07:59.355Z,0
2017-04-30T02:08:40.228Z,0
2017-04-30T02:09:21.091Z,0
2017-04-30T02:10:01.952Z,0
2017-04-30T02:10:42.829Z,0
2017-04-30T02:11:23.719Z,0
2017-04-30T02:12:04.605Z,0
2017-04-30T02:12:45.470Z,0
2017-04-30T02:13:26.335Z,0
2017-04-30T02:14:07.209Z,0
2017-04-30T02:14:48.098Z,0
2017-04-30T02:15:28.977Z,0
2017-04-30T02:16:09.852Z,0
2017-04-30T02:16:50.725Z,0
2017-04-30T02:17:31.610Z,0
2017-04-30T02:18:12.504Z,0
2017-04-30T02:18:53.374Z,0
2017-04-30T02:19:34.254Z,0
2017-04-30T02:20:15.130Z,0
2017-04-30T02:20:56.027Z,0
2017-04-30T02:21:36.906Z,0
2017-04-30T02:22:17.819Z,0
2017-04-30T02:22:58.663Z,0
2017-04-30T02:23:39.535Z,0
2017-04-30T02:24:20.427Z,0
2017-04-30T02:25:01.302Z,0
2017-04-30T02:25:42.188Z,0
2017-04-30T02:26:23.049Z,0
2017-04-30T02:27:03.924Z,0
2017-04-30T02:27:44.813Z,0
2017-04-30T02:28:25.694Z,0
2017-04-30T02:29:06.574Z,0
2017-04-30T02:29:47.483Z,0
2017-04-30T02:30:28.367Z,0
2017-04-30T02:31:09.248Z,0
2017-04-30T02:31:50.133Z,0
2017-04-30T02:32:31.027Z,0
2017-04-30T02:33:11.929Z,0
2017-04-30T02:33:52.814Z,0
2017-04-30T02:34:33.702Z,0
2017-04-30T02:35:14.580Z,0
2017-04-30T02:35:55.452Z,0
2017-04-30T02:36:36.315Z,0
2017-04-30T02:37:17.192Z,0
2017-04-30T02:37:58.077Z,0
2017-04-30T02:38:38.965Z,0
2017-04-30T02:39:19.834Z,0
2017-04-30T02:40:00.707Z,0
2017-04-30T02:40:41.572Z,0
2017-04-30T02:41:22.448Z,0
2017-04-30T02:42:03.349Z,0
2017-04-30T02:42:44.304Z,0
2017-04-30T02:43:26.962Z,0
2017-04-30T02:44:07.935Z,0
2017-04-30T02:44:49.853Z,0
2017-04-30T02:45:30.646Z,0
2017-04-30T02:46:12.392Z,0
2017-04-30T02:46:53.309Z,0
2017-04-30T02:47:34.258Z,0
2017-04-30T02:48:15.147Z,0
2017-04-30T02:48:56.054Z,0
2017-04-30T02:49:36.921Z,0
2017-04-30T02:50:17.789Z,0
2017-04-30T02:50:58.679Z,0
2017-04-30T02:51:39.561Z,0
2017-04-30T02:52:20.424Z,0
2017-04-30T02:53:01.296Z,0
2017-04-30T02:53:42.165Z,0
2017-04-30T02:54:23.075Z,0
2017-04-30T02:55:03.948Z,0
2017-04-30T02:55:44.818Z,0
2017-04-30T02:56:25.698Z,0
2017-04-30T02:57:06.582Z,0
2017-04-30T02:57:47.472Z,0
2017-04-30T02:58:28.351Z,0
2017-04-30T02:59:09.221Z,0
2017-04-30T02:59:50.079Z,4
2017-04-30T03:00:30.946Z,4
2017-04-30T03:01:11.844Z,4
2017-04-30T03:01:52.730Z,4
2017-04-30T03:02:33.611Z,0
2017-04-30T03:03:14.479Z,0
2017-04-30T03:03:55.320Z,4
2017-04-30T03:04:36.198Z,4
2017-04-30T03:05:17.074Z,4
2017-04-30T03:05:57.954Z,0
2017-04-30T03:06:38.850Z,4
2017-04-30T03:07:19.726Z,4
2017-04-30T03:08:00.611Z,4
2017-04-30T03:08:41.466Z,4
2017-04-30T03:09:22.319Z,4
2017-04-30T03:10:03.191Z,4
2017-04-30T03:10:44.076Z,8
2017-04-30T03:11:24.954Z,4
2017-04-30T03:12:05.842Z,8
2017-04-30T03:12:46.696Z,8
2017-04-30T03:13:27.571Z,12
2017-04-30T03:14:08.434Z,12
2017-04-30T03:14:49.300Z,12
2017-04-30T03:15:30.157Z,12
2017-04-30T03:16:11.028Z,12
2017-04-30T03:16:51.921Z,16
2017-04-30T03:17:32.798Z,16
2017-04-30T03:18:13.676Z,20
2017-04-30T03:18:54.553Z,16
2017-04-30T03:19:35.430Z,20
2017-04-30T03:20:16.304Z,20
2017-04-30T03:20:57.190Z,24
2017-04-30T03:21:38.067Z,24
2017-04-30T03:22:18.958Z,32
2017-04-30T03:22:59.840Z,32
2017-04-30T03:23:40.721Z,32
2017-04-30T03:24:21.602Z,36
2017-04-30T03:25:02.492Z,40
2017-04-30T03:25:43.374Z,44
2017-04-30T03:26:24.251Z,44
2017-04-30T03:27:05.191Z,48
2017-04-30T03:27:46.076Z,56
2017-04-30T03:28:26.938Z,60
2017-04-30T03:29:07.818Z,64
2017-04-30T03:29:48.708Z,68
2017-04-30T03:30:29.585Z,72
2017-04-30T03:31:10.460Z,76
2017-04-30T03:31:51.331Z,84
2017-04-30T03:32:32.212Z,88
2017-04-30T03:33:13.099Z,96
2017-04-30T03:33:53.978Z,104
2017-04-30T03:34:34.853Z,108
2017-04-30T03:35:15.733Z,116
2017-04-30T03:35:56.603Z,120
2017-04-30T03:36:37.507Z,128
2017-04-30T03:37:18.380Z,140
2017-04-30T03:37:59.254Z,148
2017-04-30T03:38:40.128Z,156
2017-04-30T03:39:21.020Z,160
2017-04-30T03:40:01.907Z,172
2017-04-30T03:40:42.794Z,180
2017-04-30T03:41:23.693Z,188
2017-04-30T03:42:04.575Z,200
2017-04-30T03:42:45.445Z,208
2017-04-30T03:43:26.313Z,220
2017-04-30T03:44:07.196Z,228
2017-04-30T03:44:48.071Z,240
2017-04-30T03:45:28.947Z,252
2017-04-30T03:46:09.830Z,264
2017-04-30T03:46:50.700Z,276
2017-04-30T03:47:31.578Z,288
2017-04-30T03:48:12.455Z,300
2017-04-30T03:48:53.347Z,312
2017-04-30T03:49:34.214Z,324
2017-04-30T03:50:15.086Z,336
2017-04-30T03:50:55.963Z,348
2017-04-30T03:51:36.839Z,364
2017-04-30T03:52:17.727Z,380
2017-04-30T03:52:58.616Z,392
2017-04-30T03:53:39.474Z,408
2017-04-30T03:54:20.404Z,420
2017-04-30T03:55:01.285Z,436
2017-04-30T03:55:42.185Z,448
2017-04-30T03:56:23.032Z,464
2017-04-30T03:57:03.911Z,480
2017-04-30T03:57:44.785Z,492
2017-04-30T03:58:25.670Z,512
2017-04-30T03:59:06.549Z,528
2017-04-30T03:59:47.422Z,540
2017-04-30T04:00:28.294Z,560
2017-04-30T04:01:09.184Z,572
2017-04-30T04:01:50.068Z,592
2017-04-30T04:02:30.949Z,608
2017-04-30T04:03:11.830Z,628
2017-04-30T04:03:52.708Z,640
2017-04-30T04:04:33.587Z,656
2017-04-30T04:05:14.464Z,672
2017-04-30T04:05:55.341Z,692
2017-04-30T04:06:36.224Z,708
2017-04-30T04:07:17.109Z,728
2017-04-30T04:07:57.992Z,744
2017-04-30T04:08:38.876Z,760
2017-04-30T04:09:19.749Z,780
2017-04-30T04:10:00.623Z,792
2017-04-30T04:10:41.501Z,812
2017-04-30T04:11:22.392Z,832
2017-04-30T04:12:03.270Z,848
2017-04-30T04:12:44.137Z,864
2017-04-30T04:13:25.019Z,880
2017-04-30T04:14:05.905Z,896
2017-04-30T04:14:46.791Z,916
2017-04-30T04:15:27.668Z,928
2017-04-30T04:16:08.551Z,944
2017-04-30T04:16:49.435Z,960
2017-04-30T04:17:30.307Z,976
2017-04-30T04:18:11.184Z,992
2017-04-30T04:18:52.054Z,1008
2017-04-30T04:19:32.932Z,1024
2017-04-30T04:20:13.816Z,1044
2017-04-30T04:20:54.698Z,1056
2017-04-30T04:21:35.563Z,1076
2017-04-30T04:22:16.436Z,1092
2017-04-30T04:22:57.311Z,1108
2017-04-30T04:23:38.185Z,1124
2017-04-30T04:24:19.066Z,1144
2017-04-30T04:24:59.945Z,1160
2017-04-30T04:25:41.676Z,1176
2017-04-30T04:26:22.557Z,1192
2017-04-30T04:27:03.439Z,1208
2017-04-30T04:27:44.316Z,1224
2017-04-30T04:28:25.199Z,1236
2017-04-30T04:29:06.125Z,1256
2017-04-30T04:29:46.960Z,1272
2017-04-30T04:30:27.832Z,1288
2017-04-30T04:31:08.710Z,1308
2017-04-30T04:31:49.586Z,1324
2017-04-30T04:32:30.460Z,1340
2017-04-30T04:33:11.349Z,1348
2017-04-30T04:33:52.237Z,1360
2017-04-30T04:34:33.110Z,1376
2017-04-30T04:35:14.890Z,1384
2017-04-30T04:35:55.757Z,1404
2017-04-30T04:36:36.626Z,1416
2017-04-30T04:37:17.512Z,1428
2017-04-30T04:37:58.389Z,1444
2017-04-30T04:38:39.267Z,1460
2017-04-30T04:39:20.151Z,1468
2017-04-30T04:40:01.035Z,1476
2017-04-30T04:40:41.912Z,1496
2017-04-30T04:41:22.780Z,1508
2017-04-30T04:42:03.652Z,1516
2017-04-30T04:42:44.519Z,1532
2017-04-30T04:43:25.386Z,1544
2017-04-30T04:44:06.253Z,1560
2017-04-30T04:44:47.119Z,1580
2017-04-30T04:45:27.998Z,1580
2017-04-30T04:46:08.877Z,1600
2017-04-30T04:46:49.744Z,1616
2017-04-30T04:47:30.626Z,1624
2017-04-30T04:48:11.509Z,1636
2017-04-30T04:48:52.386Z,1648
2017-04-30T04:49:33.283Z,1660
2017-04-30T04:50:14.156Z,1676
2017-04-30T04:50:55.053Z,1684
2017-04-30T04:51:35.931Z,1700
2017-04-30T04:52:16.805Z,1700
2017-04-30T04:52:57.719Z,1720
2017-04-30T04:53:38.593Z,1740
2017-04-30T04:54:19.461Z,1744
2017-04-30T04:55:00.365Z,1764
2017-04-30T04:55:41.225Z,1776
2017-04-30T04:56:22.120Z,1780
2017-04-30T04:57:02.976Z,1808
2017-04-30T04:57:43.849Z,1812
2017-04-30T04:58:24.728Z,1824
2017-04-30T04:59:05.612Z,1844
2017-04-30T04:59:46.482Z,1852
2017-04-30T05:00:27.372Z,1864
2017-04-30T05:01:08.249Z,1888
2017-04-30T05:01:49.179Z,1900
2017-04-30T05:02:30.095Z,1912
2017-04-30T05:03:10.954Z,1928
2017-04-30T05:03:51.813Z,1940
2017-04-30T05:04:32.708Z,1956
2017-04-30T05:05:13.592Z,1960
2017-04-30T05:05:54.477Z,1980
2017-04-30T05:06:35.350Z,2000
2017-04-30T05:07:16.221Z,1996
2017-04-30T05:07:57.103Z,2016
2017-04-30T05:08:37.988Z,2020
2017-04-30T05:09:18.861Z,2040
2017-04-30T05:09:59.741Z,2052
2017-04-30T05:10:40.605Z,2052
2017-04-30T05:11:22.161Z,2064
2017-04-30T05:12:03.030Z,2080
2017-04-30T05:12:43.923Z,2096
2017-04-30T05:13:24.853Z,2104
2017-04-30T05:14:05.718Z,2112
2017-04-30T05:14:46.604Z,2136
2017-04-30T05:15:27.480Z,2152
2017-04-30T05:16:08.364Z,2160
2017-04-30T05:16:49.261Z,2188
2017-04-30T05:17:30.159Z,2204
2017-04-30T05:18:11.485Z,2212
2017-04-30T05:18:52.415Z,2220
2017-04-30T05:19:33.289Z,2224
2017-04-30T05:20:14.159Z,2244
2017-04-30T05:20:55.036Z,2244
2017-04-30T05:21:35.911Z,2264
2017-04-30T05:22:16.798Z,2268
2017-04-30T05:22:57.674Z,2268
2017-04-30T05:23:38.578Z,2284
2017-04-30T05:24:19.430Z,2308
2017-04-30T05:25:00.314Z,2292
2017-04-30T05:25:41.195Z,2320
2017-04-30T05:26:22.067Z,2328
2017-04-30T05:27:02.956Z,2328
2017-04-30T05:27:43.826Z,2336
2017-04-30T05:28:24.690Z,2360
2017-04-30T05:29:05.579Z,2376
2017-04-30T05:29:46.468Z,2384
2017-04-30T05:30:27.341Z,2404
2017-04-30T05:31:08.226Z,2424
2017-04-30T05:31:49.092Z,2452
2017-04-30T05:32:29.981Z,2448
2017-04-30T05:33:10.856Z,2468
2017-04-30T05:33:51.737Z,2472
2017-04-30T05:34:32.626Z,2492
2017-04-30T05:35:13.503Z,2512
2017-04-30T05:35:54.413Z,2520
2017-04-30T05:36:35.305Z,2520
2017-04-30T05:37:16.157Z,2532
2017-04-30T05:37:57.017Z,2528
2017-04-30T05:38:37.893Z,2564
2017-04-30T05:39:18.765Z,2576
2017-04-30T05:39:59.653Z,2592
2017-04-30T05:40:40.525Z,2636
2017-04-30T05:41:21.405Z,2648
2017-04-30T05:42:02.285Z,2664
2017-04-30T05:42:43.166Z,2668
2017-04-30T05:45:22.565Z,2728
2017-04-30T05:46:03.438Z,2748
2017-04-30T05:46:44.723Z,2772
2017-04-30T05:47:25.593Z,2788
2017-04-30T05:48:06.486Z,2796
2017-04-30T05:48:47.344Z,2852
2017-04-30T05:49:28.234Z,2816
2017-04-30T05:50:09.125Z,2816
2017-04-30T05:50:50.010Z,2844
2017-04-30T05:51:30.887Z,2856
2017-04-30T05:52:11.761Z,2856
2017-04-30T05:52:52.632Z,2884
2017-04-30T05:53:33.508Z,2880
2017-04-30T05:54:14.375Z,2888
2017-04-30T05:54:55.256Z,2912
2017-04-30T05:55:36.149Z,2896
2017-04-30T05:56:17.028Z,2880
2017-04-30T05:56:57.898Z,2912
2017-04-30T05:57:38.786Z,2916
2017-04-30T05:58:19.673Z,2940
2017-04-30T05:59:00.580Z,2920
2017-04-30T05:59:41.465Z,2940
2017-04-30T06:00:22.333Z,2928
2017-04-30T06:01:03.207Z,2928
2017-04-30T06:01:44.083Z,2964
2017-04-30T06:02:24.946Z,2960
2017-04-30T06:03:05.824Z,2968
2017-04-30T06:03:46.698Z,2976
2017-04-30T06:04:27.572Z,2996
2017-04-30T06:05:08.458Z,3020
2017-04-30T06:05:49.341Z,3020
2017-04-30T06:06:30.218Z,3044
2017-04-30T06:07:11.107Z,3076
2017-04-30T06:07:51.993Z,3048
2017-04-30T06:08:32.864Z,3076
2017-04-30T06:09:13.732Z,3088
2017-04-30T06:09:54.605Z,3100
2017-04-30T06:10:35.516Z,3124
2017-04-30T06:11:16.387Z,3136
2017-04-30T06:11:57.260Z,3152
2017-04-30T06:12:38.128Z,3184
2017-04-30T06:13:18.984Z,3220
2017-04-30T06:13:59.895Z,3204
2017-04-30T06:14:40.760Z,3248
2017-04-30T06:15:21.621Z,3268
2017-04-30T06:16:02.486Z,3284
2017-04-30T06:16:43.345Z,3304
2017-04-30T06:17:25.533Z,3332
2017-04-30T06:18:06.418Z,3340
2017-04-30T06:18:47.278Z,3364
2017-04-30T06:19:28.169Z,3384
2017-04-30T06:20:09.044Z,3400
2017-04-30T06:20:49.926Z,3448
2017-04-30T06:21:30.813Z,3456
2017-04-30T06:22:11.691Z,3452
2017-04-30T06:22:52.590Z,3464
2017-04-30T06:23:33.463Z,3496
2017-04-30T06:24:14.341Z,3512
2017-04-30T06:24:55.226Z,3544
2017-04-30T06:25:36.077Z,3564
2017-04-30T06:26:16.968Z,3616
2017-04-30T06:26:57.852Z,3628
2017-04-30T06:27:38.725Z,3652
2017-04-30T06:28:19.597Z,3676
2017-04-30T06:29:00.475Z,3724
2017-04-30T06:29:41.363Z,3724
2017-04-30T06:30:22.288Z,3712
2017-04-30T06:31:03.159Z,3756
2017-04-30T06:31:44.062Z,3772
2017-04-30T06:32:24.921Z,3788
2017-04-30T06:33:05.797Z,3836
2017-04-30T06:33:46.675Z,3868
2017-04-30T06:34:27.543Z,3976
2017-04-30T06:35:08.449Z,4076
2017-04-30T06:35:49.333Z,4156
2017-04-30T06:36:30.206Z,4260
2017-04-30T06:37:11.056Z,4436
2017-04-30T06:37:51.924Z,4612
2017-04-30T06:38:32.796Z,4884
2017-04-30T06:39:13.699Z,5236
2017-04-30T06:39:54.564Z,5872
2017-04-30T06:40:35.443Z,6788
2017-04-30T06:41:16.308Z,8096
2017-04-30T06:41:57.181Z,9652
2017-04-30T06:42:38.061Z,10976
2017-04-30T06:43:18.955Z,12152
2017-04-30T06:43:59.830Z,12648
2017-04-30T06:44:40.705Z,12712
2017-04-30T06:45:21.573Z,12732
2017-04-30T06:46:03.153Z,12956
2017-04-30T06:46:44.044Z,13324
2017-04-30T06:47:24.920Z,13532
2017-04-30T06:48:05.796Z,13636
2017-04-30T06:48:46.684Z,14676
2017-04-30T06:49:27.581Z,19552
2017-04-30T06:50:08.453Z,27136
2017-04-30T06:50:49.334Z,34080
2017-04-30T06:51:30.217Z,38656
2017-04-30T06:52:11.100Z,38912
2017-04-30T06:52:51.998Z,39008
2017-04-30T06:53:32.967Z,36416
2017-04-30T06:54:13.841Z,29504
2017-04-30T06:54:54.724Z,21216
2017-04-30T06:55:35.600Z,15264
2017-04-30T06:56:16.495Z,14480
2017-04-30T06:56:57.369Z,14420
2017-04-30T06:57:38.252Z,14380
2017-04-30T06:58:19.126Z,17824
2017-04-30T06:59:00.013Z,27776
2017-04-30T06:59:40.896Z,39456
2017-04-30T07:00:21.780Z,48608
2017-04-30T07:01:02.678Z,51360
2017-04-30T07:01:43.566Z,50560
2017-04-30T07:06:05.590Z,43872
2017-04-30T07:06:46.502Z,44128
2017-04-30T07:07:27.411Z,44576
2017-04-30T07:08:08.298Z,46336
2017-04-30T07:08:49.180Z,47808
2017-04-30T07:09:30.096Z,48416
2017-04-30T07:10:10.988Z,48832
2017-04-30T07:10:51.880Z,47520
2017-04-30T07:11:32.790Z,44736
2017-04-30T07:12:13.684Z,44512
2017-04-30T07:12:54.578Z,45760
2017-04-30T07:15:08.818Z,40576
2017-04-30T07:15:49.698Z,42560
2017-04-30T07:16:30.597Z,45664
2017-04-30T07:17:11.498Z,48064
2017-04-30T07:19:25.671Z,58208
2017-04-30T07:20:06.551Z,58656
2017-04-30T07:20:47.463Z,58368
2017-04-30T07:21:28.354Z,57920
2017-04-30T07:22:09.247Z,55552
2017-04-30T07:22:50.153Z,52192
2017-04-30T07:23:31.028Z,50400
2017-04-30T07:24:11.920Z,31328
2017-04-30T07:24:52.818Z,47680
2017-04-30T07:25:33.706Z,48288
2017-04-30T07:26:14.614Z,43584
2017-04-30T07:26:55.501Z,42592
2017-04-30T07:27:36.386Z,43872
2017-04-30T07:28:17.280Z,46816
2017-04-30T07:28:58.182Z,51200
2017-04-30T07:29:39.050Z,53984
2017-04-30T07:30:19.926Z,54176
2017-04-30T07:31:00.816Z,66208
2017-04-30T07:31:41.710Z,58880
2017-04-30T07:32:22.586Z,59936
2017-04-30T07:33:03.487Z,59744
2017-04-30T07:33:44.374Z,62912
2017-04-30T07:34:25.273Z,53920
2017-04-30T07:35:06.175Z,57120
2017-04-30T07:35:47.061Z,55808
2017-04-30T07:36:27.963Z,54592
2017-04-30T07:37:08.860Z,52352
2017-04-30T07:37:50.385Z,51968
2017-04-30T07:38:31.281Z,52224
2017-04-30T07:39:12.164Z,52160
2017-04-30T07:39:53.023Z,53984
2017-04-30T07:40:33.919Z,55776
2017-04-30T07:41:14.798Z,57888
2017-04-30T07:41:55.814Z,58400
2017-04-30T07:42:36.722Z,58432
2017-04-30T07:43:17.605Z,59552
2017-04-30T07:43:58.480Z,58400
2017-04-30T07:44:39.371Z,60544
2017-04-30T07:45:20.269Z,58848
2017-04-30T07:46:03.986Z,60544
2017-04-30T07:46:45.102Z,57248
2017-04-30T07:47:25.850Z,58848
2017-04-30T07:49:54.984Z,49696
2017-04-30T07:52:10.118Z,53408
2017-04-30T07:52:50.989Z,55232
2017-04-30T07:53:31.869Z,56800
2017-04-30T07:54:12.776Z,39648
2017-04-30T07:54:53.660Z,36640
2017-04-30T07:55:40.137Z,59488
2017-04-30T07:56:23.021Z,52832
2017-04-30T07:57:03.906Z,45248
2017-04-30T07:57:44.790Z,43104
2017-04-30T07:58:25.681Z,47808
2017-04-30T07:59:08.135Z,42656
2017-04-30T07:59:49.046Z,40192
2017-04-30T08:00:29.933Z,50048
2017-04-30T08:01:10.812Z,37888
2017-04-30T08:01:51.706Z,31264
2017-04-30T08:02:32.624Z,30048
2017-04-30T08:03:13.682Z,39808
2017-04-30T08:03:54.573Z,38688
2017-04-30T08:04:35.462Z,40832
2017-04-30T08:05:16.350Z,44672
2017-04-30T08:05:57.244Z,43904
2017-04-30T08:06:38.153Z,33728
2017-04-30T08:07:19.054Z,39872
2017-04-30T08:07:59.952Z,42528
2017-04-30T08:08:47.076Z,40032
2017-04-30T08:09:27.961Z,27648
2017-04-30T08:10:08.862Z,30496
2017-04-30T08:10:49.741Z,33600
2017-04-30T08:11:35.147Z,40992
2017-04-30T08:12:20.659Z,31968
2017-04-30T08:13:09.155Z,36352
2017-04-30T08:13:50.052Z,26752
2017-04-30T08:14:32.646Z,35424
2017-04-30T08:15:13.541Z,30528
2017-04-30T08:16:02.147Z,32736
2017-04-30T08:16:50.675Z,33056
2017-04-30T08:17:31.566Z,37568
2017-04-30T08:18:12.454Z,38720
2017-04-30T08:18:53.346Z,35712
2017-04-30T08:19:34.242Z,17760
2017-04-30T08:20:15.127Z,19072
2017-04-30T08:20:56.019Z,26208
2017-04-30T08:21:36.929Z,18688
2017-04-30T08:22:19.675Z,32448
2017-04-30T08:23:00.574Z,36128
2017-04-30T08:23:41.477Z,41856
2017-04-30T08:24:22.374Z,43264
2017-04-30T08:25:03.258Z,39392
2017-04-30T08:25:44.164Z,12568
2017-04-30T08:26:25.061Z,14600
2017-04-30T08:27:05.950Z,39136
2017-04-30T08:27:48.408Z,36256
2017-04-30T08:28:29.302Z,46592
2017-04-30T08:29:10.190Z,46240
2017-04-30T08:29:51.090Z,49824
2017-04-30T08:30:31.985Z,55200
2017-04-30T08:31:14.792Z,59424
2017-04-30T08:31:55.686Z,62016
2017-04-30T08:32:36.600Z,63424
2017-04-30T08:33:17.466Z,64736
2017-04-30T08:33:58.367Z,65568
2017-04-30T08:34:39.264Z,64864
2017-04-30T08:37:08.405Z,65664
2017-04-30T08:37:49.307Z,53952
2017-04-30T08:38:30.230Z,55456
2017-04-30T08:39:11.127Z,58336
2017-04-30T08:39:52.013Z,66944
2017-04-30T08:43:08.333Z,70400
2017-04-30T08:43:49.174Z,69440
2017-04-30T08:44:30.270Z,66688
2017-04-30T08:45:11.726Z,63072
2017-04-30T08:45:52.611Z,59968
2017-04-30T08:46:33.536Z,55904
2017-04-30T08:47:14.468Z,51008
2017-04-30T08:47:55.353Z,44960
2017-04-30T08:48:36.251Z,48544
2017-04-30T08:49:17.145Z,45408
2017-04-30T08:49:58.502Z,52896
2017-04-30T08:50:39.394Z,12512
2017-04-30T08:51:20.282Z,74688
2017-04-30T08:52:01.175Z,75872
2017-04-30T08:52:42.073Z,76800
2017-04-30T08:53:22.967Z,77600
2017-04-30T08:54:03.887Z,80256
2017-04-30T08:54:44.794Z,84288
2017-04-30T08:55:25.697Z,88192
2017-04-30T08:56:07.503Z,76000
2017-04-30T08:56:48.358Z,24320
2017-04-30T08:57:29.254Z,51136
2017-04-30T08:58:10.157Z,26688
2017-04-30T08:58:51.145Z,88000
2017-04-30T08:59:31.989Z,87392
2017-04-30T09:00:12.884Z,84096
2017-04-30T09:00:53.792Z,75264
2017-04-30T09:01:34.677Z,68224
2017-04-30T09:02:15.636Z,61984
2017-04-30T09:02:56.542Z,58656
2017-04-30T09:03:37.429Z,55456
2017-04-30T09:04:18.311Z,49600
2017-04-30T09:04:59.235Z,53248
2017-04-30T09:05:40.103Z,57728
2017-04-30T09:06:21.695Z,65568
2017-04-30T09:07:01.945Z,68416
2017-04-30T09:07:42.853Z,72480
2017-04-30T09:08:23.758Z,77568
2017-04-30T09:09:04.683Z,84000
2017-04-30T09:09:45.581Z,87776
2017-04-30T09:10:26.466Z,89152
2017-04-30T09:11:07.366Z,79200
2017-04-30T09:11:48.252Z,51680
2017-04-30T09:12:29.165Z,82144
2017-04-30T09:13:10.050Z,94016
2017-04-30T09:13:50.952Z,91232
2017-04-30T09:14:31.845Z,66368
2017-04-30T09:15:12.742Z,35488
2017-04-30T09:15:53.636Z,9532
2017-04-30T09:16:34.517Z,7784
2017-04-30T09:17:15.416Z,8388
2017-04-30T09:17:56.309Z,11016
2017-04-30T09:18:37.220Z,8244
2017-04-30T09:19:18.102Z,11628
2017-04-30T09:19:58.994Z,13692
2017-04-30T09:20:39.890Z,10904
2017-04-30T09:21:20.808Z,14508
2017-04-30T09:22:01.709Z,13480
2017-04-30T09:22:42.595Z,11120
2017-04-30T09:23:23.504Z,13452
2017-04-30T09:24:04.391Z,12036
2017-04-30T09:24:45.272Z,8820
2017-04-30T09:25:26.159Z,10476
2017-04-30T09:26:07.056Z,10052
2017-04-30T09:26:47.948Z,11204
2017-04-30T09:27:28.829Z,8564
2017-04-30T09:28:09.734Z,9476
2017-04-30T09:28:50.611Z,10080
2017-04-30T09:29:31.495Z,9216
2017-04-30T09:30:12.394Z,8856
2017-04-30T09:30:53.289Z,8588
2017-04-30T09:31:34.173Z,8600
2017-04-30T09:32:15.065Z,9044
2017-04-30T09:32:55.971Z,8404
2017-04-30T09:33:36.862Z,9416
2017-04-30T09:34:17.758Z,9960
2017-04-30T09:34:58.631Z,6556
2017-04-30T09:35:39.533Z,10224
2017-04-30T09:36:20.418Z,9532
2017-04-30T09:37:01.304Z,9648
2017-04-30T09:37:42.197Z,9224
2017-04-30T09:38:23.068Z,8824
2017-04-30T09:39:03.979Z,8932